sensor_id;sensor_type;location;lat;lon;timestamp;P1;durP1;ratioP1;P2;durP2;ratioP2
17414;SDS011;8825;48.086;16.426;2024-01-15T00:01:30;63.05;;;59.70;;
17414;SDS011;8825;48.086;16.426;2024-01-15T00:03:58;46.80;;;44.15;;
17414;SDS011;8825;48.086;16.426;2024-01-15T00:06:26;45.20;;;42.75;;
17414;SDS011;8825;48.086;16.426;2024-01-15T00:08:54;26.90;;;25.00;;
17414;SDS011;8825;48.086;16.426;2024-01-15T00:11:23;25.97;;;23.98;;
17414;SDS011;8825;48.086;16.426;2024-01-15T00:13:51;28.83;;;26.97;;
17414;SDS011;8825;48.086;16.426;2024-01-15T00:16:19;39.80;;;37.50;;
17414;SDS011;8825;48.086;16.426;2024-01-15T00:18:46;27.85;;;25.82;;
17414;SDS011;8825;48.086;16.426;2024-01-15T00:21:14;25.50;;;23.65;;
17414;SDS011;8825;48.086;16.426;2024-01-15T00:23:46;25.15;;;23.47;;
17414;SDS011;8825;48.086;16.426;2024-01-15T00:26:11;24.23;;;22.50;;
17414;SDS011;8825;48.086;16.426;2024-01-15T00:28:39;24.80;;;23.10;;
17414;SDS011;8825;48.086;16.426;2024-01-15T00:31:07;21.15;;;19.55;;
17414;SDS011;8825;48.086;16.426;2024-01-15T00:33:35;22.07;;;20.23;;
17414;SDS011;8825;48.086;16.426;2024-01-15T00:36:02;25.97;;;24.25;;
17414;SDS011;8825;48.086;16.426;2024-01-15T00:38:30;33.35;;;31.27;;
17414;SDS011;8825;48.086;16.426;2024-01-15T00:40:57;31.20;;;29.15;;
17414;SDS011;8825;48.086;16.426;2024-01-15T00:43:25;34.38;;;32.30;;
17414;SDS011;8825;48.086;16.426;2024-01-15T00:45:52;28.00;;;26.15;;
17414;SDS011;8825;48.086;16.426;2024-01-15T00:48:20;27.80;;;25.65;;
17414;SDS011;8825;48.086;16.426;2024-01-15T00:50:47;25.97;;;24.07;;
17414;SDS011;8825;48.086;16.426;2024-01-15T00:53:15;26.05;;;24.25;;
17414;SDS011;8825;48.086;16.426;2024-01-15T00:55:44;26.05;;;24.27;;
17414;SDS011;8825;48.086;16.426;2024-01-15T00:58:11;24.70;;;22.98;;
17414;SDS011;8825;48.086;16.426;2024-01-15T01:00:39;43.70;;;41.20;;
17414;SDS011;8825;48.086;16.426;2024-01-15T01:03:06;29.72;;;27.70;;
17414;SDS011;8825;48.086;16.426;2024-01-15T01:05:34;27.07;;;25.15;;
17414;SDS011;8825;48.086;16.426;2024-01-15T01:08:03;23.02;;;21.23;;
17414;SDS011;8825;48.086;16.426;2024-01-15T01:10:31;48.78;;;45.78;;
17414;SDS011;8825;48.086;16.426;2024-01-15T01:12:58;29.50;;;27.30;;
17414;SDS011;8825;48.086;16.426;2024-01-15T01:15:26;28.38;;;26.27;;
17414;SDS011;8825;48.086;16.426;2024-01-15T01:17:53;36.48;;;34.25;;
17414;SDS011;8825;48.086;16.426;2024-01-15T01:20:21;29.65;;;27.45;;
17414;SDS011;8825;48.086;16.426;2024-01-15T01:22:48;34.80;;;32.40;;
17414;SDS011;8825;48.086;16.426;2024-01-15T01:25:16;36.28;;;33.88;;
17414;SDS011;8825;48.086;16.426;2024-01-15T01:27:43;31.73;;;29.40;;
17414;SDS011;8825;48.086;16.426;2024-01-15T01:30:11;31.25;;;29.12;;
17414;SDS011;8825;48.086;16.426;2024-01-15T01:32:39;34.03;;;31.50;;
17414;SDS011;8825;48.086;16.426;2024-01-15T01:35:06;54.48;;;51.20;;
17414;SDS011;8825;48.086;16.426;2024-01-15T01:37:34;44.38;;;41.28;;
17414;SDS011;8825;48.086;16.426;2024-01-15T01:40:02;39.35;;;36.60;;
17414;SDS011;8825;48.086;16.426;2024-01-15T01:42:30;40.83;;;37.88;;
17414;SDS011;8825;48.086;16.426;2024-01-15T01:44:57;41.00;;;37.83;;
17414;SDS011;8825;48.086;16.426;2024-01-15T01:47:25;39.45;;;36.33;;
17414;SDS011;8825;48.086;16.426;2024-01-15T01:49:52;34.23;;;31.57;;
17414;SDS011;8825;48.086;16.426;2024-01-15T01:52:21;32.98;;;30.15;;
17414;SDS011;8825;48.086;16.426;2024-01-15T01:54:49;34.00;;;31.20;;
17414;SDS011;8825;48.086;16.426;2024-01-15T01:57:17;50.48;;;47.27;;
17414;SDS011;8825;48.086;16.426;2024-01-15T01:59:45;36.30;;;33.45;;
17414;SDS011;8825;48.086;16.426;2024-01-15T02:02:14;32.05;;;29.40;;
17414;SDS011;8825;48.086;16.426;2024-01-15T02:04:43;37.63;;;34.70;;
17414;SDS011;8825;48.086;16.426;2024-01-15T02:09:58;39.15;;;36.03;;
17414;SDS011;8825;48.086;16.426;2024-01-15T02:12:26;35.45;;;32.55;;
17414;SDS011;8825;48.086;16.426;2024-01-15T02:14:54;44.98;;;41.68;;
17414;SDS011;8825;48.086;16.426;2024-01-15T02:17:21;35.65;;;33.08;;
17414;SDS011;8825;48.086;16.426;2024-01-15T02:19:49;45.73;;;42.55;;
17414;SDS011;8825;48.086;16.426;2024-01-15T02:22:17;48.52;;;45.12;;
17414;SDS011;8825;48.086;16.426;2024-01-15T02:24:44;33.18;;;30.45;;
17414;SDS011;8825;48.086;16.426;2024-01-15T02:27:12;39.20;;;36.25;;
17414;SDS011;8825;48.086;16.426;2024-01-15T02:29:39;34.20;;;31.52;;
17414;SDS011;8825;48.086;16.426;2024-01-15T02:32:08;54.03;;;50.38;;
17414;SDS011;8825;48.086;16.426;2024-01-15T02:34:36;47.90;;;44.65;;
17414;SDS011;8825;48.086;16.426;2024-01-15T02:37:03;50.08;;;46.63;;
17414;SDS011;8825;48.086;16.426;2024-01-15T02:39:31;44.60;;;41.53;;
17414;SDS011;8825;48.086;16.426;2024-01-15T02:41:58;34.25;;;31.48;;
17414;SDS011;8825;48.086;16.426;2024-01-15T02:44:26;33.02;;;30.27;;
17414;SDS011;8825;48.086;16.426;2024-01-15T02:46:53;29.75;;;27.25;;
17414;SDS011;8825;48.086;16.426;2024-01-15T02:49:21;41.75;;;38.55;;
17414;SDS011;8825;48.086;16.426;2024-01-15T02:51:48;38.90;;;36.20;;
17414;SDS011;8825;48.086;16.426;2024-01-15T02:54:16;37.40;;;34.45;;
17414;SDS011;8825;48.086;16.426;2024-01-15T02:56:43;40.28;;;37.58;;
17414;SDS011;8825;48.086;16.426;2024-01-15T02:59:11;44.50;;;41.42;;
17414;SDS011;8825;48.086;16.426;2024-01-15T03:01:38;34.60;;;31.95;;
17414;SDS011;8825;48.086;16.426;2024-01-15T03:04:06;40.67;;;37.83;;
17414;SDS011;8825;48.086;16.426;2024-01-15T03:06:34;31.77;;;29.18;;
17414;SDS011;8825;48.086;16.426;2024-01-15T03:09:01;30.75;;;28.35;;
17414;SDS011;8825;48.086;16.426;2024-01-15T03:11:29;32.50;;;29.98;;
17414;SDS011;8825;48.086;16.426;2024-01-15T03:13:58;37.20;;;34.35;;
17414;SDS011;8825;48.086;16.426;2024-01-15T03:16:26;32.65;;;30.05;;
17414;SDS011;8825;48.086;16.426;2024-01-15T03:18:53;33.05;;;30.32;;
17414;SDS011;8825;48.086;16.426;2024-01-15T03:21:21;41.18;;;38.17;;
17414;SDS011;8825;48.086;16.426;2024-01-15T03:23:48;45.17;;;42.15;;
17414;SDS011;8825;48.086;16.426;2024-01-15T03:26:16;34.58;;;31.93;;
17414;SDS011;8825;48.086;16.426;2024-01-15T03:28:43;35.88;;;33.35;;
17414;SDS011;8825;48.086;16.426;2024-01-15T03:31:11;36.23;;;33.67;;
17414;SDS011;8825;48.086;16.426;2024-01-15T03:33:38;32.73;;;30.48;;
17414;SDS011;8825;48.086;16.426;2024-01-15T03:36:06;27.85;;;26.05;;
17414;SDS011;8825;48.086;16.426;2024-01-15T03:38:35;24.10;;;22.30;;
17414;SDS011;8825;48.086;16.426;2024-01-15T03:41:05;30.05;;;28.25;;
17414;SDS011;8825;48.086;16.426;2024-01-15T03:43:33;31.80;;;29.95;;
17414;SDS011;8825;48.086;16.426;2024-01-15T03:46:01;30.75;;;29.02;;
17414;SDS011;8825;48.086;16.426;2024-01-15T03:48:28;28.77;;;27.00;;
17414;SDS011;8825;48.086;16.426;2024-01-15T03:50:56;27.55;;;25.65;;
17414;SDS011;8825;48.086;16.426;2024-01-15T03:53:24;29.70;;;27.70;;
17414;SDS011;8825;48.086;16.426;2024-01-15T03:55:51;29.50;;;27.40;;
17414;SDS011;8825;48.086;16.426;2024-01-15T03:58:19;24.90;;;22.87;;
17414;SDS011;8825;48.086;16.426;2024-01-15T04:00:46;27.52;;;25.32;;
17414;SDS011;8825;48.086;16.426;2024-01-15T04:03:14;22.32;;;20.57;;
17414;SDS011;8825;48.086;16.426;2024-01-15T04:05:41;18.35;;;16.85;;
17414;SDS011;8825;48.086;16.426;2024-01-15T04:08:09;20.45;;;18.75;;
17414;SDS011;8825;48.086;16.426;2024-01-15T04:10:37;19.15;;;17.55;;
17414;SDS011;8825;48.086;16.426;2024-01-15T04:13:04;19.67;;;18.05;;
17414;SDS011;8825;48.086;16.426;2024-01-15T04:15:32;36.10;;;33.95;;
17414;SDS011;8825;48.086;16.426;2024-01-15T04:18:00;37.25;;;35.00;;
17414;SDS011;8825;48.086;16.426;2024-01-15T04:20:28;22.87;;;21.27;;
17414;SDS011;8825;48.086;16.426;2024-01-15T04:22:56;21.37;;;19.87;;
17414;SDS011;8825;48.086;16.426;2024-01-15T04:25:24;24.10;;;22.35;;
17414;SDS011;8825;48.086;16.426;2024-01-15T04:27:51;21.70;;;20.25;;
17414;SDS011;8825;48.086;16.426;2024-01-15T04:30:19;23.95;;;22.45;;
17414;SDS011;8825;48.086;16.426;2024-01-15T04:32:46;25.32;;;23.62;;
17414;SDS011;8825;48.086;16.426;2024-01-15T04:35:14;26.35;;;24.75;;
17414;SDS011;8825;48.086;16.426;2024-01-15T04:37:42;26.70;;;24.95;;
17414;SDS011;8825;48.086;16.426;2024-01-15T04:40:09;26.07;;;24.55;;
17414;SDS011;8825;48.086;16.426;2024-01-15T04:42:37;27.27;;;25.62;;
17414;SDS011;8825;48.086;16.426;2024-01-15T04:45:05;24.80;;;23.30;;
17414;SDS011;8825;48.086;16.426;2024-01-15T04:47:32;27.22;;;25.52;;
17414;SDS011;8825;48.086;16.426;2024-01-15T04:50:02;30.23;;;28.45;;
17414;SDS011;8825;48.086;16.426;2024-01-15T04:52:30;37.90;;;35.88;;
17414;SDS011;8825;48.086;16.426;2024-01-15T04:54:58;40.50;;;38.20;;
17414;SDS011;8825;48.086;16.426;2024-01-15T04:57:25;39.40;;;37.25;;
17414;SDS011;8825;48.086;16.426;2024-01-15T04:59:53;42.65;;;40.48;;
17414;SDS011;8825;48.086;16.426;2024-01-15T05:02:20;39.35;;;37.35;;
17414;SDS011;8825;48.086;16.426;2024-01-15T05:04:48;38.70;;;36.70;;
17414;SDS011;8825;48.086;16.426;2024-01-15T05:07:15;44.18;;;41.95;;
17414;SDS011;8825;48.086;16.426;2024-01-15T05:09:43;35.68;;;33.95;;
17414;SDS011;8825;48.086;16.426;2024-01-15T05:12:10;25.50;;;24.05;;
17414;SDS011;8825;48.086;16.426;2024-01-15T05:14:39;35.88;;;34.18;;
17414;SDS011;8825;48.086;16.426;2024-01-15T05:17:06;30.48;;;28.70;;
17414;SDS011;8825;48.086;16.426;2024-01-15T05:19:34;23.57;;;22.07;;
17414;SDS011;8825;48.086;16.426;2024-01-15T05:22:01;22.95;;;21.42;;
17414;SDS011;8825;48.086;16.426;2024-01-15T05:24:29;19.90;;;18.40;;
17414;SDS011;8825;48.086;16.426;2024-01-15T05:26:56;31.07;;;29.12;;
17414;SDS011;8825;48.086;16.426;2024-01-15T05:29:24;29.23;;;27.48;;
17414;SDS011;8825;48.086;16.426;2024-01-15T05:31:52;33.05;;;31.33;;
17414;SDS011;8825;48.086;16.426;2024-01-15T05:34:20;31.95;;;30.05;;
17414;SDS011;8825;48.086;16.426;2024-01-15T05:36:48;39.27;;;37.28;;
17414;SDS011;8825;48.086;16.426;2024-01-15T05:39:15;39.90;;;37.70;;
17414;SDS011;8825;48.086;16.426;2024-01-15T05:41:43;34.50;;;32.70;;
17414;SDS011;8825;48.086;16.426;2024-01-15T05:44:10;35.25;;;33.30;;
17414;SDS011;8825;48.086;16.426;2024-01-15T05:46:38;54.33;;;51.73;;
17414;SDS011;8825;48.086;16.426;2024-01-15T05:49:05;47.55;;;45.12;;
17414;SDS011;8825;48.086;16.426;2024-01-15T05:51:33;46.02;;;43.73;;
17414;SDS011;8825;48.086;16.426;2024-01-15T05:54:00;26.00;;;24.43;;
17414;SDS011;8825;48.086;16.426;2024-01-15T05:56:28;50.38;;;47.83;;
17414;SDS011;8825;48.086;16.426;2024-01-15T05:58:55;54.38;;;51.58;;
17414;SDS011;8825;48.086;16.426;2024-01-15T06:01:23;54.15;;;51.45;;
17414;SDS011;8825;48.086;16.426;2024-01-15T06:03:51;44.55;;;42.10;;
17414;SDS011;8825;48.086;16.426;2024-01-15T06:06:19;35.80;;;33.83;;
17414;SDS011;8825;48.086;16.426;2024-01-15T06:08:47;28.00;;;26.25;;
17414;SDS011;8825;48.086;16.426;2024-01-15T06:11:14;28.80;;;26.87;;
17414;SDS011;8825;48.086;16.426;2024-01-15T06:13:42;33.00;;;30.90;;
17414;SDS011;8825;48.086;16.426;2024-01-15T06:16:18;34.95;;;32.58;;
17414;SDS011;8825;48.086;16.426;2024-01-15T06:18:42;39.15;;;36.95;;
17414;SDS011;8825;48.086;16.426;2024-01-15T06:21:09;33.67;;;31.65;;
17414;SDS011;8825;48.086;16.426;2024-01-15T06:23:39;38.15;;;35.92;;
17414;SDS011;8825;48.086;16.426;2024-01-15T06:26:07;31.50;;;29.48;;
17414;SDS011;8825;48.086;16.426;2024-01-15T06:28:34;33.95;;;31.80;;
17414;SDS011;8825;48.086;16.426;2024-01-15T06:31:02;30.70;;;28.83;;
17414;SDS011;8825;48.086;16.426;2024-01-15T06:33:30;40.12;;;37.73;;
17414;SDS011;8825;48.086;16.426;2024-01-15T06:35:57;35.85;;;33.60;;
17414;SDS011;8825;48.086;16.426;2024-01-15T06:38:25;28.75;;;27.00;;
17414;SDS011;8825;48.086;16.426;2024-01-15T06:40:52;23.12;;;21.48;;
17414;SDS011;8825;48.086;16.426;2024-01-15T06:43:20;33.63;;;31.50;;
17414;SDS011;8825;48.086;16.426;2024-01-15T06:45:47;25.32;;;23.60;;
17414;SDS011;8825;48.086;16.426;2024-01-15T06:48:15;29.07;;;27.37;;
17414;SDS011;8825;48.086;16.426;2024-01-15T06:50:42;21.93;;;20.48;;
17414;SDS011;8825;48.086;16.426;2024-01-15T06:53:10;21.15;;;19.60;;
17414;SDS011;8825;48.086;16.426;2024-01-15T06:55:38;26.27;;;24.63;;
17414;SDS011;8825;48.086;16.426;2024-01-15T06:58:05;23.50;;;22.00;;
17414;SDS011;8825;48.086;16.426;2024-01-15T07:00:33;21.93;;;20.43;;
17414;SDS011;8825;48.086;16.426;2024-01-15T07:03:00;28.30;;;26.55;;
17414;SDS011;8825;48.086;16.426;2024-01-15T07:05:29;25.82;;;24.18;;
17414;SDS011;8825;48.086;16.426;2024-01-15T07:07:56;25.57;;;23.98;;
17414;SDS011;8825;48.086;16.426;2024-01-15T07:10:24;20.65;;;18.95;;
17414;SDS011;8825;48.086;16.426;2024-01-15T07:12:52;20.45;;;19.00;;
17414;SDS011;8825;48.086;16.426;2024-01-15T07:15:19;22.67;;;21.07;;
17414;SDS011;8825;48.086;16.426;2024-01-15T07:17:47;23.15;;;21.65;;
17414;SDS011;8825;48.086;16.426;2024-01-15T07:20:14;19.40;;;18.20;;
17414;SDS011;8825;48.086;16.426;2024-01-15T07:22:43;25.57;;;23.95;;
17414;SDS011;8825;48.086;16.426;2024-01-15T07:25:11;24.95;;;23.45;;
17414;SDS011;8825;48.086;16.426;2024-01-15T07:27:38;23.22;;;21.70;;
17414;SDS011;8825;48.086;16.426;2024-01-15T07:30:08;24.35;;;22.75;;
17414;SDS011;8825;48.086;16.426;2024-01-15T07:32:35;23.80;;;22.50;;
17414;SDS011;8825;48.086;16.426;2024-01-15T07:35:03;28.85;;;27.15;;
17414;SDS011;8825;48.086;16.426;2024-01-15T07:37:31;26.62;;;24.92;;
17414;SDS011;8825;48.086;16.426;2024-01-15T07:39:59;31.60;;;29.90;;
17414;SDS011;8825;48.086;16.426;2024-01-15T07:42:26;26.30;;;24.60;;
17414;SDS011;8825;48.086;16.426;2024-01-15T07:44:54;38.55;;;36.42;;
17414;SDS011;8825;48.086;16.426;2024-01-15T07:47:21;38.67;;;36.58;;
17414;SDS011;8825;48.086;16.426;2024-01-15T07:49:49;49.55;;;47.10;;
17414;SDS011;8825;48.086;16.426;2024-01-15T07:52:17;27.58;;;25.88;;
17414;SDS011;8825;48.086;16.426;2024-01-15T07:54:44;36.38;;;34.40;;
17414;SDS011;8825;48.086;16.426;2024-01-15T07:57:12;28.55;;;26.93;;
17414;SDS011;8825;48.086;16.426;2024-01-15T07:59:40;23.73;;;22.40;;
17414;SDS011;8825;48.086;16.426;2024-01-15T08:02:07;33.15;;;31.20;;
17414;SDS011;8825;48.086;16.426;2024-01-15T08:04:36;23.70;;;22.10;;
17414;SDS011;8825;48.086;16.426;2024-01-15T08:07:07;23.92;;;22.52;;
17414;SDS011;8825;48.086;16.426;2024-01-15T08:09:34;21.27;;;19.87;;
17414;SDS011;8825;48.086;16.426;2024-01-15T08:12:02;23.55;;;22.07;;
17414;SDS011;8825;48.086;16.426;2024-01-15T08:14:31;32.58;;;30.97;;
17414;SDS011;8825;48.086;16.426;2024-01-15T08:16:59;24.75;;;23.38;;
17414;SDS011;8825;48.086;16.426;2024-01-15T08:19:27;25.85;;;24.35;;
17414;SDS011;8825;48.086;16.426;2024-01-15T08:21:55;32.63;;;30.97;;
17414;SDS011;8825;48.086;16.426;2024-01-15T08:24:22;41.05;;;39.03;;
17414;SDS011;8825;48.086;16.426;2024-01-15T08:26:50;38.90;;;37.13;;
17414;SDS011;8825;48.086;16.426;2024-01-15T08:29:17;31.15;;;29.55;;
17414;SDS011;8825;48.086;16.426;2024-01-15T08:31:46;34.83;;;33.10;;
17414;SDS011;8825;48.086;16.426;2024-01-15T08:34:15;29.50;;;27.98;;
17414;SDS011;8825;48.086;16.426;2024-01-15T08:36:42;35.10;;;33.20;;
17414;SDS011;8825;48.086;16.426;2024-01-15T08:39:10;42.05;;;39.92;;
17414;SDS011;8825;48.086;16.426;2024-01-15T08:41:38;39.33;;;37.42;;
17414;SDS011;8825;48.086;16.426;2024-01-15T08:47:28;40.88;;;38.90;;
17414;SDS011;8825;48.086;16.426;2024-01-15T08:53:18;38.97;;;37.13;;
17414;SDS011;8825;48.086;16.426;2024-01-15T08:59:08;33.10;;;31.55;;
17414;SDS011;8825;48.086;16.426;2024-01-15T09:04:59;44.20;;;41.93;;
17414;SDS011;8825;48.086;16.426;2024-01-15T09:07:27;22.53;;;21.37;;
17414;SDS011;8825;48.086;16.426;2024-01-15T09:13:17;19.07;;;18.07;;
17414;SDS011;8825;48.086;16.426;2024-01-15T09:19:07;21.17;;;20.07;;
17414;SDS011;8825;48.086;16.426;2024-01-15T09:24:57;19.47;;;18.40;;
17414;SDS011;8825;48.086;16.426;2024-01-15T09:27:25;16.63;;;15.67;;
17414;SDS011;8825;48.086;16.426;2024-01-15T09:33:14;17.17;;;16.23;;
17414;SDS011;8825;48.086;16.426;2024-01-15T09:39:04;15.80;;;14.93;;
17414;SDS011;8825;48.086;16.426;2024-01-15T09:44:56;16.43;;;15.60;;
17414;SDS011;8825;48.086;16.426;2024-01-15T09:50:22;23.47;;;22.33;;
17414;SDS011;8825;48.086;16.426;2024-01-15T09:52:50;23.27;;;22.13;;
17414;SDS011;8825;48.086;16.426;2024-01-15T09:58:41;21.10;;;20.00;;
17414;SDS011;8825;48.086;16.426;2024-01-15T10:04:31;21.33;;;20.23;;
17414;SDS011;8825;48.086;16.426;2024-01-15T10:10:21;13.43;;;12.63;;
17414;SDS011;8825;48.086;16.426;2024-01-15T10:12:49;19.70;;;18.70;;
17414;SDS011;8825;48.086;16.426;2024-01-15T10:24:48;33.80;;;32.30;;
17414;SDS011;8825;48.086;16.426;2024-01-15T10:27:16;47.23;;;45.23;;
17414;SDS011;8825;48.086;16.426;2024-01-15T10:29:44;48.33;;;46.23;;
17414;SDS011;8825;48.086;16.426;2024-01-15T10:35:34;51.63;;;49.33;;
17414;SDS011;8825;48.086;16.426;2024-01-15T10:38:02;36.90;;;35.30;;
17414;SDS011;8825;48.086;16.426;2024-01-15T10:43:28;46.17;;;44.20;;
17414;SDS011;8825;48.086;16.426;2024-01-15T10:48:54;66.57;;;63.87;;
17414;SDS011;8825;48.086;16.426;2024-01-15T10:54:45;81.37;;;78.13;;
17414;SDS011;8825;48.086;16.426;2024-01-15T11:00:36;34.03;;;32.57;;
17414;SDS011;8825;48.086;16.426;2024-01-15T11:03:05;27.80;;;26.43;;
17414;SDS011;8825;48.086;16.426;2024-01-15T11:08:55;29.03;;;27.73;;
17414;SDS011;8825;48.086;16.426;2024-01-15T11:14:47;46.47;;;44.43;;
17414;SDS011;8825;48.086;16.426;2024-01-15T11:20:37;37.97;;;36.27;;
17414;SDS011;8825;48.086;16.426;2024-01-15T11:23:05;41.43;;;39.60;;
17414;SDS011;8825;48.086;16.426;2024-01-15T11:25:35;27.23;;;25.93;;
17414;SDS011;8825;48.086;16.426;2024-01-15T11:28:03;29.73;;;28.33;;
17414;SDS011;8825;48.086;16.426;2024-01-15T11:30:31;28.57;;;27.30;;
17414;SDS011;8825;48.086;16.426;2024-01-15T11:33:01;32.93;;;31.50;;
17414;SDS011;8825;48.086;16.426;2024-01-15T11:35:47;37.47;;;35.77;;
17414;SDS011;8825;48.086;16.426;2024-01-15T11:37:59;37.80;;;36.10;;
17414;SDS011;8825;48.086;16.426;2024-01-15T11:43:04;37.40;;;35.73;;
17414;SDS011;8825;48.086;16.426;2024-01-15T11:45:33;44.63;;;42.63;;
17414;SDS011;8825;48.086;16.426;2024-01-15T11:48:11;57.03;;;54.67;;
17414;SDS011;8825;48.086;16.426;2024-01-15T11:50:43;17.47;;;16.40;;
17414;SDS011;8825;48.086;16.426;2024-01-15T11:53:32;38.00;;;36.33;;
17414;SDS011;8825;48.086;16.426;2024-01-15T11:59:24;19.37;;;18.40;;
17414;SDS011;8825;48.086;16.426;2024-01-15T12:05:15;36.67;;;35.03;;
17414;SDS011;8825;48.086;16.426;2024-01-15T12:07:44;30.47;;;29.07;;
17414;SDS011;8825;48.086;16.426;2024-01-15T12:10:17;27.23;;;25.83;;
17414;SDS011;8825;48.086;16.426;2024-01-15T12:16:08;71.03;;;68.03;;
17414;SDS011;8825;48.086;16.426;2024-01-15T12:18:38;48.43;;;46.33;;
17414;SDS011;8825;48.086;16.426;2024-01-15T12:24:41;28.67;;;27.40;;
17414;SDS011;8825;48.086;16.426;2024-01-15T12:30:33;32.90;;;31.30;;
17414;SDS011;8825;48.086;16.426;2024-01-15T12:36:01;57.50;;;55.17;;
17414;SDS011;8825;48.086;16.426;2024-01-15T12:38:30;37.50;;;35.80;;
17414;SDS011;8825;48.086;16.426;2024-01-15T12:40:59;25.40;;;24.00;;
17414;SDS011;8825;48.086;16.426;2024-01-15T12:43:27;21.47;;;20.40;;
17414;SDS011;8825;48.086;16.426;2024-01-15T12:45:55;30.03;;;28.63;;
17414;SDS011;8825;48.086;16.426;2024-01-15T12:48:24;16.83;;;16.00;;
17414;SDS011;8825;48.086;16.426;2024-01-15T12:50:52;16.30;;;15.47;;
17414;SDS011;8825;48.086;16.426;2024-01-15T12:53:19;15.37;;;14.53;;
17414;SDS011;8825;48.086;16.426;2024-01-15T12:55:47;12.30;;;11.53;;
17414;SDS011;8825;48.086;16.426;2024-01-15T12:58:15;14.03;;;13.27;;
17414;SDS011;8825;48.086;16.426;2024-01-15T13:00:43;14.57;;;13.57;;
17414;SDS011;8825;48.086;16.426;2024-01-15T13:06:32;14.70;;;14.00;;
17414;SDS011;8825;48.086;16.426;2024-01-15T13:09:00;15.33;;;14.57;;
17414;SDS011;8825;48.086;16.426;2024-01-15T13:14:51;13.77;;;13.13;;
17414;SDS011;8825;48.086;16.426;2024-01-15T13:20:40;11.67;;;11.07;;
17414;SDS011;8825;48.086;16.426;2024-01-15T13:26:34;20.90;;;19.97;;
17414;SDS011;8825;48.086;16.426;2024-01-15T13:29:03;19.27;;;18.40;;
17414;SDS011;8825;48.086;16.426;2024-01-15T13:31:31;13.17;;;12.47;;
17414;SDS011;8825;48.086;16.426;2024-01-15T13:34:17;13.93;;;13.23;;
17414;SDS011;8825;48.086;16.426;2024-01-15T13:40:08;10.50;;;10.00;;
17414;SDS011;8825;48.086;16.426;2024-01-15T13:46:00;10.07;;;9.47;;
17414;SDS011;8825;48.086;16.426;2024-01-15T13:51:40;11.43;;;10.83;;
17414;SDS011;8825;48.086;16.426;2024-01-15T13:54:08;12.00;;;11.47;;
17414;SDS011;8825;48.086;16.426;2024-01-15T13:56:36;11.63;;;10.93;;
17414;SDS011;8825;48.086;16.426;2024-01-15T13:59:03;13.37;;;12.57;;
17414;SDS011;8825;48.086;16.426;2024-01-15T14:01:31;13.50;;;12.90;;
17414;SDS011;8825;48.086;16.426;2024-01-15T14:03:59;13.80;;;12.97;;
17414;SDS011;8825;48.086;16.426;2024-01-15T14:06:27;11.07;;;10.47;;
17414;SDS011;8825;48.086;16.426;2024-01-15T14:08:56;11.57;;;10.97;;
17414;SDS011;8825;48.086;16.426;2024-01-15T14:11:23;12.40;;;11.80;;
17414;SDS011;8825;48.086;16.426;2024-01-15T14:13:51;13.37;;;12.67;;
17414;SDS011;8825;48.086;16.426;2024-01-15T14:16:19;11.90;;;11.30;;
17414;SDS011;8825;48.086;16.426;2024-01-15T14:18:47;13.80;;;13.10;;
17414;SDS011;8825;48.086;16.426;2024-01-15T14:21:14;14.17;;;13.43;;
17414;SDS011;8825;48.086;16.426;2024-01-15T14:27:05;14.20;;;13.40;;
17414;SDS011;8825;48.086;16.426;2024-01-15T14:29:33;15.40;;;14.67;;
17414;SDS011;8825;48.086;16.426;2024-01-15T14:32:01;13.93;;;13.20;;
17414;SDS011;8825;48.086;16.426;2024-01-15T14:34:29;11.93;;;11.33;;
17414;SDS011;8825;48.086;16.426;2024-01-15T14:36:57;11.57;;;11.03;;
17414;SDS011;8825;48.086;16.426;2024-01-15T14:39:25;11.07;;;10.47;;
17414;SDS011;8825;48.086;16.426;2024-01-15T14:45:15;10.83;;;10.30;;
17414;SDS011;8825;48.086;16.426;2024-01-15T14:51:05;12.57;;;11.87;;
17414;SDS011;8825;48.086;16.426;2024-01-15T14:56:55;12.50;;;11.80;;
17414;SDS011;8825;48.086;16.426;2024-01-15T15:02:45;16.50;;;15.73;;
17414;SDS011;8825;48.086;16.426;2024-01-15T15:05:14;14.23;;;13.50;;
17414;SDS011;8825;48.086;16.426;2024-01-15T15:11:06;15.30;;;14.13;;
17414;SDS011;8825;48.086;16.426;2024-01-15T15:16:56;25.57;;;24.23;;
17414;SDS011;8825;48.086;16.426;2024-01-15T15:31:37;18.67;;;17.82;;
17414;SDS011;8825;48.086;16.426;2024-01-15T15:37:27;23.80;;;22.60;;
17414;SDS011;8825;48.086;16.426;2024-01-15T15:39:56;23.98;;;22.87;;
17414;SDS011;8825;48.086;16.426;2024-01-15T15:42:25;29.12;;;27.82;;
17414;SDS011;8825;48.086;16.426;2024-01-15T15:44:53;22.90;;;21.90;;
17414;SDS011;8825;48.086;16.426;2024-01-15T15:47:22;19.45;;;18.48;;
17414;SDS011;8825;48.086;16.426;2024-01-15T15:49:50;19.13;;;18.33;;
17414;SDS011;8825;48.086;16.426;2024-01-15T15:52:18;20.75;;;19.85;;
17414;SDS011;8825;48.086;16.426;2024-01-15T15:54:46;22.67;;;21.57;;
17414;SDS011;8825;48.086;16.426;2024-01-15T15:57:13;24.43;;;23.30;;
17414;SDS011;8825;48.086;16.426;2024-01-15T15:59:41;22.82;;;21.80;;
17414;SDS011;8825;48.086;16.426;2024-01-15T16:02:09;42.20;;;40.43;;
17414;SDS011;8825;48.086;16.426;2024-01-15T16:04:37;45.92;;;44.05;;
17414;SDS011;8825;48.086;16.426;2024-01-15T16:07:04;40.23;;;38.53;;
17414;SDS011;8825;48.086;16.426;2024-01-15T16:12:56;32.85;;;31.20;;
17414;SDS011;8825;48.086;16.426;2024-01-15T16:15:24;33.40;;;32.05;;
17414;SDS011;8825;48.086;16.426;2024-01-15T16:21:03;24.32;;;23.30;;
17414;SDS011;8825;48.086;16.426;2024-01-15T16:32:30;30.60;;;29.30;;
17414;SDS011;8825;48.086;16.426;2024-01-15T16:34:58;35.23;;;33.70;;
17414;SDS011;8825;48.086;16.426;2024-01-15T16:37:26;24.63;;;23.50;;
17414;SDS011;8825;48.086;16.426;2024-01-15T16:43:16;22.95;;;22.00;;
17414;SDS011;8825;48.086;16.426;2024-01-15T16:45:44;26.52;;;25.32;;
17414;SDS011;8825;48.086;16.426;2024-01-15T16:48:12;27.20;;;25.97;;
17414;SDS011;8825;48.086;16.426;2024-01-15T16:50:39;31.95;;;30.65;;
17414;SDS011;8825;48.086;16.426;2024-01-15T16:53:07;27.82;;;26.62;;
17414;SDS011;8825;48.086;16.426;2024-01-15T16:55:35;23.67;;;22.67;;
17414;SDS011;8825;48.086;16.426;2024-01-15T16:58:03;31.37;;;30.10;;
17414;SDS011;8825;48.086;16.426;2024-01-15T17:00:31;31.27;;;29.92;;
17414;SDS011;8825;48.086;16.426;2024-01-15T17:02:59;30.17;;;28.92;;
17414;SDS011;8825;48.086;16.426;2024-01-15T17:08:49;24.57;;;23.57;;
17414;SDS011;8825;48.086;16.426;2024-01-15T17:11:17;27.75;;;26.48;;
17414;SDS011;8825;48.086;16.426;2024-01-15T17:16:44;21.15;;;20.12;;
17414;SDS011;8825;48.086;16.426;2024-01-15T17:22:10;18.27;;;17.48;;
17414;SDS011;8825;48.086;16.426;2024-01-15T17:27:59;16.55;;;15.78;;
17414;SDS011;8825;48.086;16.426;2024-01-15T17:33:49;26.52;;;25.43;;
17414;SDS011;8825;48.086;16.426;2024-01-15T17:36:17;28.32;;;27.13;;
17414;SDS011;8825;48.086;16.426;2024-01-15T17:38:45;24.20;;;23.10;;
17414;SDS011;8825;48.086;16.426;2024-01-15T17:41:31;17.62;;;16.80;;
17414;SDS011;8825;48.086;16.426;2024-01-15T17:47:21;16.45;;;15.75;;
17414;SDS011;8825;48.086;16.426;2024-01-15T17:53:11;16.97;;;16.27;;
17414;SDS011;8825;48.086;16.426;2024-01-15T17:59:01;15.78;;;15.08;;
17414;SDS011;8825;48.086;16.426;2024-01-15T18:01:29;18.73;;;17.87;;